createdAt,value
2022-11-09T00:01:05.568Z,2.30
2022-11-09T00:03:35.478Z,2.70
2022-11-09T00:06:02.272Z,3.42
2022-11-09T00:08:29.543Z,1.58
2022-11-09T00:11:01.887Z,2.20
2022-11-09T00:13:28.692Z,1.80
2022-11-09T00:15:59.028Z,5.30
2022-11-09T00:18:25.662Z,1.77
2022-11-09T00:20:52.884Z,2.63
2022-11-09T00:23:19.679Z,4.75
2022-11-09T00:25:47.684Z,3.72
2022-11-09T00:28:14.986Z,4.60
2022-11-09T00:30:48.859Z,3.00
2022-11-09T00:33:16.366Z,2.83
2022-11-09T00:35:43.238Z,2.97
2022-11-09T00:38:09.861Z,2.38
2022-11-09T00:40:38.177Z,2.20
2022-11-09T00:43:04.884Z,3.38
2022-11-09T00:45:31.608Z,8.25
2022-11-09T00:47:58.203Z,3.28
2022-11-09T00:50:25.032Z,3.28
2022-11-09T00:52:58.599Z,2.40
2022-11-09T00:55:25.875Z,3.13
2022-11-09T00:57:53.120Z,4.60
2022-11-09T01:00:23.319Z,16.02
2022-11-09T01:02:50.947Z,3.87
2022-11-09T01:05:19.272Z,2.30
2022-11-09T01:07:45.897Z,3.92
2022-11-09T01:10:12.479Z,2.25
2022-11-09T01:12:39.088Z,2.15
2022-11-09T01:15:06.348Z,5.57
2022-11-09T01:17:34.079Z,1.90
2022-11-09T01:20:00.603Z,1.90
2022-11-09T01:22:27.233Z,5.45
2022-11-09T01:24:54.952Z,2.38
2022-11-09T01:27:23.982Z,2.78
2022-11-09T01:29:50.732Z,2.10
2022-11-09T01:32:17.885Z,1.92
2022-11-09T01:34:44.942Z,2.45
2022-11-09T01:37:11.572Z,2.08
2022-11-09T01:39:38.229Z,2.83
2022-11-09T01:42:04.998Z,3.00
2022-11-09T01:44:33.710Z,3.58
2022-11-09T01:47:14.564Z,3.50
2022-11-09T01:49:56.713Z,3.63
2022-11-09T01:52:32.144Z,3.47
2022-11-09T01:55:04.368Z,5.10
2022-11-09T01:57:38.443Z,4.93
2022-11-09T02:00:14.150Z,5.15
2022-11-09T02:02:45.991Z,5.88
2022-11-09T02:05:17.551Z,6.43
2022-11-09T02:07:46.961Z,9.13
2022-11-09T02:10:24.031Z,8.30
2022-11-09T02:12:54.305Z,8.32
2022-11-09T02:15:22.060Z,9.20
2022-11-09T02:17:53.718Z,7.63
2022-11-09T02:20:22.831Z,8.77
2022-11-09T02:22:54.518Z,8.20
2022-11-09T02:25:21.306Z,9.65
2022-11-09T02:27:51.037Z,11.02
2022-11-09T02:30:19.270Z,10.75
2022-11-09T02:32:47.924Z,12.15
2022-11-09T02:35:14.604Z,12.35
2022-11-09T02:37:50.765Z,13.23
2022-11-09T02:40:29.851Z,13.80
2022-11-09T02:42:57.295Z,12.82
2022-11-09T02:45:23.860Z,11.60
2022-11-09T02:47:50.421Z,11.77
2022-11-09T02:50:17.080Z,12.85
2022-11-09T02:52:43.669Z,12.35
2022-11-09T02:55:10.763Z,11.77
2022-11-09T02:57:38.385Z,11.65
2022-11-09T03:00:06.326Z,11.98
2022-11-09T03:02:34.648Z,12.35
2022-11-09T03:05:01.811Z,12.30
2022-11-09T03:07:28.721Z,12.32
2022-11-09T03:09:55.761Z,12.65
2022-11-09T03:12:30.383Z,12.80
2022-11-09T03:15:09.923Z,13.98
2022-11-09T03:17:40.657Z,12.70
2022-11-09T03:20:08.168Z,13.57
2022-11-09T03:22:36.281Z,13.25
2022-11-09T03:25:03.483Z,14.02
2022-11-09T03:27:30.843Z,13.48
2022-11-09T03:29:57.766Z,16.17
2022-11-09T03:32:24.448Z,13.80
2022-11-09T03:34:51.581Z,13.93
2022-11-09T03:37:19.911Z,15.77
2022-11-09T03:39:46.699Z,13.40
2022-11-09T03:44:40.399Z,11.95
2022-11-09T03:47:06.958Z,13.73
2022-11-09T03:49:33.562Z,13.40
2022-11-09T03:52:00.124Z,13.68
2022-11-09T03:54:26.741Z,13.98
2022-11-09T03:56:53.611Z,12.98
2022-11-09T03:59:20.334Z,12.82
2022-11-09T04:01:46.946Z,13.63
2022-11-09T04:04:13.526Z,13.45
2022-11-09T04:06:40.170Z,13.73
2022-11-09T04:09:06.802Z,14.27
2022-11-09T04:11:33.411Z,14.43
2022-11-09T04:14:00.045Z,14.45
2022-11-09T04:16:26.723Z,14.68
2022-11-09T04:18:53.501Z,14.05
2022-11-09T04:21:23.674Z,13.98
2022-11-09T04:23:50.735Z,16.08
2022-11-09T04:26:17.557Z,15.27
2022-11-09T04:28:45.182Z,14.35
2022-11-09T04:31:11.823Z,15.45
2022-11-09T04:33:38.363Z,15.75
2022-11-09T04:36:05.506Z,15.43
2022-11-09T04:38:32.252Z,16.27
2022-11-09T04:41:04.131Z,15.43
2022-11-09T04:43:30.989Z,16.70
2022-11-09T04:46:02.953Z,17.88
2022-11-09T04:48:31.051Z,15.02
2022-11-09T04:51:08.871Z,15.63
2022-11-09T04:53:36.455Z,17.52
2022-11-09T04:56:04.342Z,17.13
2022-11-09T04:58:32.826Z,16.33
2022-11-09T05:01:21.558Z,15.30
2022-11-09T05:03:48.219Z,10.70
2022-11-09T05:06:34.759Z,15.27
2022-11-09T05:09:07.628Z,15.32
2022-11-09T05:11:35.708Z,16.73
2022-11-09T05:14:02.993Z,16.08
2022-11-09T05:16:30.170Z,15.38
2022-11-09T05:18:56.806Z,16.25
2022-11-09T05:21:23.570Z,16.48
2022-11-09T05:24:02.964Z,15.75
2022-11-09T05:26:37.030Z,15.35
2022-11-09T05:29:06.803Z,14.18
2022-11-09T05:31:34.580Z,11.52
2022-11-09T05:34:01.988Z,12.77
2022-11-09T05:36:30.641Z,14.82
2022-11-09T05:38:58.397Z,10.50
2022-11-09T05:41:25.811Z,10.45
2022-11-09T05:43:52.675Z,10.02
2022-11-09T05:46:19.900Z,11.02
2022-11-09T05:48:47.394Z,10.55
2022-11-09T05:51:16.154Z,10.80
2022-11-09T05:53:46.372Z,8.45
2022-11-09T05:56:15.376Z,9.63
2022-11-09T05:58:42.849Z,10.27
2022-11-09T06:01:15.100Z,9.90
2022-11-09T06:03:43.959Z,10.68
2022-11-09T06:06:13.318Z,10.27
2022-11-09T06:08:41.251Z,11.65
2022-11-09T06:11:10.806Z,11.32
2022-11-09T06:13:37.690Z,12.02
2022-11-09T06:16:05.967Z,13.95
2022-11-09T06:18:35.170Z,11.15
2022-11-09T06:21:03.555Z,9.10
2022-11-09T06:23:30.474Z,10.70
2022-11-09T06:25:58.019Z,10.95
2022-11-09T06:28:24.680Z,10.48
2022-11-09T06:30:51.681Z,9.38
2022-11-09T06:33:18.703Z,10.45
2022-11-09T06:35:45.694Z,10.93
2022-11-09T06:38:12.371Z,10.85
2022-11-09T06:40:39.325Z,11.30
2022-11-09T06:43:06.671Z,12.40
2022-11-09T06:45:33.561Z,10.32
2022-11-09T06:48:02.610Z,9.80
2022-11-09T06:50:32.199Z,11.02
2022-11-09T06:53:03.593Z,11.05
2022-11-09T06:55:34.223Z,13.80
2022-11-09T06:58:05.983Z,11.18
2022-11-09T07:00:32.986Z,7.03
2022-11-09T07:02:59.592Z,7.97
2022-11-09T07:05:26.141Z,8.68
2022-11-09T07:07:54.915Z,8.98
2022-11-09T07:10:21.569Z,8.70
2022-11-09T07:12:48.371Z,8.88
2022-11-09T07:15:15.044Z,8.45
2022-11-09T07:17:41.847Z,9.68
2022-11-09T07:20:13.123Z,10.00
2022-11-09T07:22:39.962Z,8.35
2022-11-09T07:25:07.617Z,8.05
2022-11-09T07:27:34.386Z,5.85
2022-11-09T07:30:01.291Z,5.88
2022-11-09T07:32:54.226Z,6.43
2022-11-09T07:37:44.763Z,5.63
2022-11-09T07:40:11.932Z,5.10
2022-11-09T07:42:38.954Z,5.88
2022-11-09T07:45:06.715Z,4.00
2022-11-09T07:47:33.246Z,4.50
2022-11-09T07:49:59.869Z,3.90
2022-11-09T07:52:28.701Z,4.20
2022-11-09T07:54:56.542Z,4.10
2022-11-09T07:57:23.299Z,3.30
2022-11-09T07:59:51.737Z,3.15
2022-11-09T08:02:21.264Z,4.43
2022-11-09T08:04:47.913Z,3.30
2022-11-09T08:07:14.648Z,2.50
2022-11-09T08:09:41.349Z,4.25
2022-11-09T08:12:08.176Z,1.60
2022-11-09T08:14:37.418Z,2.22
2022-11-09T08:17:04.018Z,2.22
2022-11-09T08:19:30.736Z,2.33
2022-11-09T08:21:57.884Z,1.10
2022-11-09T08:24:24.614Z,1.33
2022-11-09T08:26:51.239Z,0.93
2022-11-09T08:29:17.891Z,0.80
2022-11-09T08:31:44.591Z,0.70
2022-11-09T08:34:14.223Z,1.00
2022-11-09T08:36:41.272Z,0.47
2022-11-09T08:39:08.092Z,0.28
2022-11-09T08:41:34.794Z,0.65
2022-11-09T08:44:01.561Z,0.50
2022-11-09T08:46:31.135Z,0.45
2022-11-09T08:49:00.282Z,0.40
2022-11-09T08:51:26.936Z,0.30
2022-11-09T08:53:54.637Z,0.30
2022-11-09T08:56:21.357Z,0.65
2022-11-09T08:58:48.143Z,0.28
2022-11-09T09:01:17.331Z,0.45
2022-11-09T09:03:44.556Z,0.38
2022-11-09T09:06:11.172Z,0.40
2022-11-09T09:08:37.813Z,0.55
2022-11-09T09:11:05.307Z,0.70
2022-11-09T09:13:33.174Z,0.60
2022-11-09T09:16:10.027Z,0.57
2022-11-09T09:18:36.852Z,0.30
2022-11-09T09:21:06.999Z,0.30
2022-11-09T09:23:34.173Z,0.25
2022-11-09T09:26:00.832Z,0.40
2022-11-09T09:28:27.504Z,0.40
2022-11-09T09:30:54.343Z,0.30
2022-11-09T09:33:21.908Z,0.57
2022-11-09T09:35:48.805Z,0.47
2022-11-09T12:19:48.519Z,1.48
2022-11-09T12:22:55.706Z,1.52
2022-11-09T12:25:48.554Z,1.10
2022-11-09T12:28:47.120Z,1.58
2022-11-09T12:31:47.980Z,1.40
2022-11-09T12:34:46.677Z,1.13
2022-11-09T12:37:44.205Z,1.70
2022-11-09T12:40:43.805Z,2.20
2022-11-09T12:43:45.481Z,0.82
2022-11-09T12:46:44.627Z,0.70
2022-11-09T12:49:38.286Z,0.80
2022-11-09T12:52:30.745Z,0.30
2022-11-09T12:55:24.042Z,1.00
2022-11-09T12:58:27.163Z,1.25
2022-11-09T13:01:35.798Z,0.85
2022-11-09T13:04:24.136Z,1.45
2022-11-09T13:07:09.713Z,2.30
2022-11-09T13:13:04.516Z,2.00
2022-11-09T13:16:33.613Z,11.75
2022-11-09T13:19:34.611Z,2.75
2022-11-09T13:25:51.240Z,5.07
2022-11-09T13:28:42.412Z,2.00
2022-11-09T13:32:05.656Z,1.65
2022-11-09T13:35:01.325Z,6.43
2022-11-09T13:37:55.364Z,45.85
2022-11-09T13:40:45.161Z,11.35
2022-11-09T13:43:41.399Z,2.92
2022-11-09T13:46:38.523Z,23.23
2022-11-09T13:49:45.940Z,17.23
2022-11-09T13:52:44.404Z,13.10
2022-11-09T13:58:52.988Z,3.15
2022-11-09T14:02:04.705Z,10.90
2022-11-09T14:04:53.593Z,1.48
2022-11-09T14:07:46.213Z,1.40
2022-11-09T14:10:54.661Z,2.35
2022-11-09T14:14:25.771Z,1.23
2022-11-09T14:17:25.446Z,1.02
2022-11-09T14:23:08.851Z,0.68
2022-11-09T14:25:55.615Z,0.75
2022-11-09T14:28:41.167Z,0.90
2022-11-09T14:31:31.663Z,1.10
2022-11-09T14:34:18.193Z,1.38
2022-11-09T14:37:06.565Z,0.90
2022-11-09T14:39:54.409Z,1.20
2022-11-09T14:42:43.503Z,1.10
2022-11-09T14:45:31.812Z,0.85
2022-11-09T14:48:22.375Z,1.20
2022-11-09T14:51:17.744Z,0.93
2022-11-09T14:54:09.620Z,1.58
2022-11-09T14:57:05.474Z,1.80
2022-11-09T14:59:54.190Z,1.98
2022-11-09T15:02:45.537Z,1.30
2022-11-09T15:05:39.428Z,1.65
2022-11-09T15:08:34.993Z,1.08
2022-11-09T15:11:22.505Z,1.65
2022-11-09T15:14:35.572Z,0.75
2022-11-09T15:17:27.408Z,2.53
2022-11-09T15:20:27.085Z,1.08
2022-11-09T15:23:47.083Z,1.33
2022-11-09T15:29:45.382Z,1.20
2022-11-09T15:32:41.660Z,0.98
2022-11-09T15:35:30.281Z,2.28
2022-11-09T15:38:32.654Z,0.63
2022-11-09T15:41:25.888Z,1.50
2022-11-09T15:44:13.836Z,1.98
2022-11-09T15:47:04.392Z,1.42
2022-11-09T15:49:57.698Z,1.75
2022-11-09T15:52:54.182Z,2.70
2022-11-09T15:55:44.550Z,1.83
2022-11-09T15:59:27.394Z,1.33
2022-11-09T16:02:28.822Z,2.40
2022-11-09T16:08:40.280Z,1.52
2022-11-09T16:11:29.440Z,1.17
2022-11-09T16:14:22.403Z,1.10
2022-11-09T16:17:12.337Z,1.50
2022-11-09T16:19:58.550Z,1.98
2022-11-09T16:22:58.495Z,1.55
2022-11-09T16:28:58.402Z,5.53
2022-11-09T16:39:06.107Z,2.88
2022-11-09T16:41:51.928Z,2.35
2022-11-09T16:44:39.941Z,2.15
2022-11-09T16:47:25.053Z,1.58
2022-11-09T16:50:10.354Z,3.80
2022-11-09T16:52:55.507Z,2.50
2022-11-09T16:55:41.047Z,3.30
2022-11-09T16:58:26.295Z,4.50
2022-11-09T17:01:13.016Z,2.97
2022-11-09T17:03:59.802Z,3.50
2022-11-09T17:06:45.520Z,3.50
2022-11-09T17:09:34.412Z,3.55
2022-11-09T17:12:19.527Z,2.30
2022-11-09T17:15:05.803Z,2.13
2022-11-09T17:17:50.809Z,2.55
2022-11-09T17:20:44.702Z,2.38
2022-11-09T17:23:31.447Z,3.08
2022-11-09T17:26:17.878Z,5.57
2022-11-09T17:29:03.401Z,4.78
2022-11-09T17:31:48.735Z,3.83
2022-11-09T17:34:34.766Z,3.38
2022-11-09T17:37:20.115Z,1.75
2022-11-09T17:40:05.833Z,2.33
2022-11-09T17:42:51.000Z,2.35
2022-11-09T17:45:36.571Z,1.80
2022-11-09T17:48:21.817Z,2.47
2022-11-09T17:51:09.130Z,1.52
2022-11-09T17:53:54.807Z,2.33
2022-11-09T17:56:40.305Z,3.20
2022-11-09T17:59:25.510Z,4.07
2022-11-09T18:02:10.768Z,2.67
2022-11-09T18:04:55.892Z,2.50
2022-11-09T18:07:41.619Z,2.90
2022-11-09T18:10:26.826Z,2.60
2022-11-09T18:13:12.370Z,2.60
2022-11-09T18:15:57.658Z,3.97
2022-11-09T18:18:42.909Z,4.32
2022-11-09T18:21:28.664Z,4.43
2022-11-09T18:24:14.369Z,5.03
2022-11-09T18:27:00.270Z,5.47
2022-11-09T18:29:45.414Z,6.43
2022-11-09T18:32:30.909Z,5.72
2022-11-09T18:35:16.255Z,6.60
2022-11-09T18:38:01.271Z,6.40
2022-11-09T18:41:03.026Z,5.72
2022-11-09T18:43:48.842Z,4.97
2022-11-09T18:46:35.346Z,3.63
2022-11-09T18:49:20.624Z,4.20
2022-11-09T18:52:06.067Z,5.00
2022-11-09T18:54:51.304Z,5.13
2022-11-09T18:57:36.477Z,3.53
2022-11-09T19:00:21.981Z,2.80
2022-11-09T19:03:12.676Z,2.35
2022-11-09T19:05:58.175Z,1.70
2022-11-09T19:09:02.732Z,4.68
2022-11-09T19:11:48.028Z,3.03
2022-11-09T19:14:40.522Z,1.33
2022-11-09T19:17:25.729Z,1.08
2022-11-09T19:20:12.876Z,2.33
2022-11-09T19:22:58.319Z,2.53
2022-11-09T19:25:43.571Z,1.30
2022-11-09T19:28:29.092Z,2.08
2022-11-09T19:31:16.280Z,1.50
2022-11-09T19:34:01.375Z,2.17
2022-11-09T19:36:46.796Z,1.30
2022-11-09T19:39:34.728Z,4.32
2022-11-09T19:42:21.411Z,1.67
2022-11-09T19:45:09.390Z,1.73
2022-11-09T19:47:54.768Z,1.80
2022-11-09T19:50:39.984Z,1.88
2022-11-09T19:53:26.705Z,2.05
2022-11-09T19:56:11.984Z,1.02
2022-11-09T19:59:00.753Z,2.13
2022-11-09T20:01:46.100Z,2.78
2022-11-09T20:04:33.045Z,1.13
2022-11-09T20:07:18.759Z,1.10
2022-11-09T20:10:06.527Z,0.80
2022-11-09T20:12:51.780Z,0.90
2022-11-09T20:15:37.079Z,0.63
2022-11-09T20:18:23.919Z,0.73
2022-11-09T20:21:09.096Z,0.90
2022-11-09T20:23:54.470Z,0.90
2022-11-09T20:26:40.627Z,0.93
2022-11-09T20:29:25.951Z,1.20
2022-11-09T20:32:12.425Z,0.98
2022-11-09T20:34:57.889Z,0.90
2022-11-09T20:37:43.223Z,0.95
2022-11-09T20:40:28.278Z,2.72
2022-11-09T20:43:13.549Z,0.50
2022-11-09T20:46:06.841Z,0.45
2022-11-09T20:48:54.698Z,1.00
2022-11-09T20:51:40.808Z,1.00
2022-11-09T20:54:26.106Z,0.80
2022-11-09T20:57:12.510Z,0.30
2022-11-09T20:59:57.548Z,1.55
2022-11-09T21:02:43.122Z,0.50
2022-11-09T21:05:28.115Z,0.73
2022-11-09T21:08:13.528Z,0.95
2022-11-09T21:11:03.987Z,0.52
2022-11-09T21:13:56.102Z,0.82
2022-11-09T21:16:41.034Z,3.25
2022-11-09T21:19:26.512Z,0.68
2022-11-09T21:22:11.888Z,0.70
2022-11-09T21:25:15.794Z,2.65
2022-11-09T21:28:19.589Z,3.65
2022-11-09T21:31:05.263Z,1.40
2022-11-09T21:33:53.144Z,1.30
2022-11-09T21:36:38.175Z,1.42
2022-11-09T21:39:23.904Z,0.52
2022-11-09T21:42:11.888Z,0.90
2022-11-09T21:44:57.082Z,0.70
2022-11-09T21:47:42.632Z,0.52
2022-11-09T21:50:27.813Z,0.45
2022-11-09T21:53:13.138Z,1.25
2022-11-09T21:55:59.660Z,0.98
2022-11-09T21:58:48.816Z,0.32
2022-11-09T22:01:34.180Z,2.30
2022-11-09T22:04:19.444Z,1.45
2022-11-09T22:07:04.936Z,0.77
2022-11-09T22:10:09.329Z,1.48
2022-11-09T22:13:13.506Z,0.98
2022-11-09T22:16:09.702Z,0.95
2022-11-09T22:19:14.115Z,1.35
2022-11-09T22:22:00.567Z,1.85
2022-11-09T22:24:45.938Z,1.85
2022-11-09T22:27:32.307Z,0.77
2022-11-09T22:30:17.554Z,0.75
2022-11-09T22:33:03.096Z,1.23
2022-11-09T22:36:05.383Z,5.35
2022-11-09T22:38:51.043Z,1.10
2022-11-09T22:41:36.447Z,0.50
2022-11-09T22:44:21.735Z,1.25
2022-11-09T22:47:07.109Z,0.90
2022-11-09T22:49:52.333Z,1.58
2022-11-09T22:52:37.569Z,1.30
2022-11-09T22:55:23.888Z,0.70
2022-11-09T22:58:09.536Z,1.95
2022-11-09T23:00:54.944Z,0.95
2022-11-09T23:03:40.331Z,0.70
2022-11-09T23:06:26.071Z,0.90
2022-11-09T23:09:11.127Z,5.82
2022-11-09T23:11:56.445Z,1.10
2022-11-09T23:15:00.005Z,1.48
2022-11-09T23:18:03.886Z,1.45
2022-11-09T23:20:49.290Z,2.03
2022-11-09T23:23:35.079Z,1.98
2022-11-09T23:26:21.092Z,1.40
2022-11-09T23:29:06.391Z,2.30
2022-11-09T23:31:51.919Z,0.75
2022-11-09T23:34:37.134Z,1.33
2022-11-09T23:37:22.745Z,1.80
2022-11-09T23:40:08.576Z,1.63
2022-11-09T23:42:59.893Z,1.83
2022-11-09T23:45:45.706Z,1.40
2022-11-09T23:48:31.253Z,1.38
2022-11-09T23:51:18.445Z,1.70
2022-11-09T23:54:03.518Z,3.20
2022-11-09T23:56:48.692Z,1.35
2022-11-09T23:59:33.863Z,1.63
